createdAt,value
2018-07-07T00:02:21.632Z,1.60
2018-07-07T00:04:50.128Z,1.40
2018-07-07T00:07:21.198Z,1.27
2018-07-07T00:09:49.599Z,1.40
2018-07-07T00:12:18.203Z,1.20
2018-07-07T00:14:46.706Z,1.30
2018-07-07T00:17:15.158Z,1.50
2018-07-07T00:19:45.604Z,1.03
2018-07-07T00:22:14.678Z,1.10
2018-07-07T00:24:52.105Z,1.27
2018-07-07T00:27:20.221Z,1.27
2018-07-07T00:29:48.903Z,1.07
2018-07-07T00:32:17.240Z,1.07
2018-07-07T00:34:47.861Z,1.20
2018-07-07T00:37:16.666Z,1.20
2018-07-07T00:39:44.397Z,1.03
2018-07-07T00:42:12.116Z,1.30
2018-07-07T00:44:39.727Z,1.20
2018-07-07T00:47:07.345Z,1.17
2018-07-07T00:49:35.268Z,1.30
2018-07-07T00:52:03.272Z,1.60
2018-07-07T00:54:30.957Z,1.77
2018-07-07T00:56:58.764Z,1.40
2018-07-07T00:59:27.005Z,1.20
2018-07-07T01:01:54.578Z,1.40
2018-07-07T01:04:22.088Z,1.40
2018-07-07T01:06:50.207Z,1.23
2018-07-07T01:09:17.825Z,1.23
2018-07-07T01:11:45.881Z,1.30
2018-07-07T01:14:13.618Z,1.23
2018-07-07T01:16:41.180Z,1.13
2018-07-07T01:19:08.717Z,1.27
2018-07-07T01:21:36.224Z,1.33
2018-07-07T01:24:04.395Z,1.50
2018-07-07T01:26:32.089Z,1.53
2018-07-07T01:28:59.807Z,1.40
2018-07-07T01:31:27.385Z,1.40
2018-07-07T01:33:54.887Z,1.37
2018-07-07T01:36:22.602Z,1.40
2018-07-07T01:38:50.165Z,1.60
2018-07-07T01:41:18.132Z,1.60
2018-07-07T01:43:45.777Z,1.13
2018-07-07T01:46:13.445Z,1.30
2018-07-07T01:48:41.861Z,1.40
2018-07-07T01:51:09.513Z,1.80
2018-07-07T01:53:37.317Z,1.30
2018-07-07T01:56:05.149Z,1.53
2018-07-07T01:58:33.728Z,1.30
2018-07-07T02:01:01.369Z,1.20
2018-07-07T02:03:28.897Z,1.40
2018-07-07T02:05:56.578Z,1.30
2018-07-07T02:08:24.162Z,1.40
2018-07-07T02:10:51.732Z,1.80
2018-07-07T02:13:19.649Z,1.80
2018-07-07T02:15:47.354Z,1.63
2018-07-07T02:18:14.884Z,1.70
2018-07-07T02:20:42.448Z,1.40
2018-07-07T02:23:10.356Z,1.33
2018-07-07T02:25:38.057Z,1.30
2018-07-07T02:28:05.771Z,1.23
2018-07-07T02:30:33.369Z,1.40
2018-07-07T02:33:00.901Z,1.50
2018-07-07T02:35:28.480Z,1.50
2018-07-07T02:37:56.013Z,1.50
2018-07-07T02:40:23.649Z,1.33
2018-07-07T02:42:51.721Z,1.20
2018-07-07T02:45:19.233Z,1.23
2018-07-07T02:47:46.767Z,1.53
2018-07-07T02:50:14.393Z,1.50
2018-07-07T02:52:42.143Z,1.33
2018-07-07T02:55:09.717Z,1.60
2018-07-07T02:57:37.773Z,1.57
2018-07-07T03:00:05.428Z,1.70
2018-07-07T03:02:34.297Z,1.23
2018-07-07T03:05:03.081Z,1.60
2018-07-07T03:07:31.625Z,1.50
2018-07-07T03:10:00.692Z,1.40
2018-07-07T03:12:29.279Z,1.43
2018-07-07T03:14:58.095Z,1.40
2018-07-07T03:17:27.783Z,1.83
2018-07-07T03:19:56.293Z,1.40
2018-07-07T03:22:25.779Z,1.70
2018-07-07T03:24:54.464Z,1.43
2018-07-07T03:27:23.405Z,1.83
2018-07-07T03:29:52.270Z,1.90
2018-07-07T03:32:21.205Z,1.40
2018-07-07T03:34:50.518Z,1.97
2018-07-07T03:37:19.941Z,1.63
2018-07-07T03:39:49.429Z,1.50
2018-07-07T03:42:18.650Z,1.53
2018-07-07T03:44:47.219Z,1.20
2018-07-07T03:47:16.714Z,1.50
2018-07-07T03:49:45.299Z,1.70
2018-07-07T03:52:14.159Z,1.50
2018-07-07T03:54:42.740Z,1.73
2018-07-07T03:57:11.037Z,1.37
2018-07-07T03:59:39.600Z,1.50
2018-07-07T04:02:09.822Z,1.50
2018-07-07T04:04:40.123Z,1.70
2018-07-07T04:07:10.052Z,1.40
2018-07-07T04:09:39.366Z,1.37
2018-07-07T04:12:08.185Z,1.77
2018-07-07T04:14:36.719Z,1.53
2018-07-07T04:17:05.332Z,1.47
2018-07-07T04:19:33.651Z,1.50
2018-07-07T04:22:02.695Z,1.80
2018-07-07T04:24:31.756Z,1.60
2018-07-07T04:27:01.981Z,1.50
2018-07-07T04:29:30.567Z,1.60
2018-07-07T04:31:59.477Z,1.63
2018-07-07T04:34:28.754Z,1.70
2018-07-07T04:36:57.581Z,2.03
2018-07-07T04:39:26.099Z,1.30
2018-07-07T04:41:54.870Z,1.60
2018-07-07T04:44:24.007Z,1.40
2018-07-07T04:46:53.607Z,1.60
2018-07-07T04:49:22.421Z,1.80
2018-07-07T04:51:50.801Z,1.80
2018-07-07T04:54:20.146Z,1.70
2018-07-07T04:56:50.198Z,1.77
2018-07-07T04:59:19.127Z,1.70
2018-07-07T05:01:47.840Z,2.10
2018-07-07T05:04:16.509Z,1.87
2018-07-07T05:06:45.261Z,1.97
2018-07-07T05:09:14.289Z,2.27
2018-07-07T05:11:43.298Z,1.57
2018-07-07T05:14:12.625Z,2.13
2018-07-07T05:16:41.421Z,2.03
2018-07-07T05:19:10.287Z,2.27
2018-07-07T05:21:39.074Z,1.83
2018-07-07T05:24:07.761Z,1.90
2018-07-07T05:26:36.371Z,2.00
2018-07-07T05:29:05.480Z,2.07
2018-07-07T05:31:33.965Z,1.70
2018-07-07T05:34:02.538Z,1.57
2018-07-07T05:36:31.216Z,1.80
2018-07-07T05:39:00.136Z,2.17
2018-07-07T05:41:28.624Z,2.10
2018-07-07T05:43:57.159Z,1.77
2018-07-07T05:46:25.663Z,2.20
2018-07-07T05:48:55.835Z,2.17
2018-07-07T05:51:24.577Z,2.20
2018-07-07T05:53:53.535Z,1.70
2018-07-07T05:56:22.109Z,2.10
2018-07-07T05:58:52.013Z,2.27
2018-07-07T06:01:20.858Z,1.87
2018-07-07T06:03:50.309Z,2.57
2018-07-07T06:06:18.741Z,2.00
2018-07-07T06:08:47.597Z,2.10
2018-07-07T06:11:15.877Z,2.10
2018-07-07T06:13:44.743Z,2.33
2018-07-07T06:16:14.354Z,2.33
2018-07-07T06:18:43.920Z,2.33
2018-07-07T06:21:12.467Z,2.23
2018-07-07T06:23:40.774Z,2.27
2018-07-07T06:26:09.928Z,2.00
2018-07-07T06:28:38.550Z,2.40
2018-07-07T06:31:07.590Z,2.33
2018-07-07T06:33:36.133Z,2.13
2018-07-07T06:36:04.802Z,1.90
2018-07-07T06:38:33.288Z,2.43
2018-07-07T06:41:03.021Z,2.70
2018-07-07T06:43:31.309Z,3.47
2018-07-07T06:45:59.767Z,3.30
2018-07-07T06:48:28.678Z,2.90
2018-07-07T06:50:57.028Z,2.83
2018-07-07T06:53:25.665Z,3.43
2018-07-07T06:55:54.573Z,2.50
2018-07-07T06:58:23.335Z,2.87
2018-07-07T07:00:51.883Z,2.90
2018-07-07T07:03:20.249Z,2.77
2018-07-07T07:05:49.876Z,3.43
2018-07-07T07:08:18.654Z,2.87
2018-07-07T07:10:48.192Z,3.30
2018-07-07T07:13:16.644Z,3.40
2018-07-07T07:15:45.210Z,3.10
2018-07-07T07:18:15.456Z,3.70
2018-07-07T07:20:44.661Z,3.70
2018-07-07T07:23:13.796Z,3.57
2018-07-07T07:25:42.595Z,3.07
2018-07-07T07:28:11.136Z,2.97
2018-07-07T07:30:39.688Z,3.53
2018-07-07T07:33:08.251Z,3.50
2018-07-07T07:35:36.832Z,2.50
2018-07-07T07:38:05.722Z,2.37
2018-07-07T07:40:34.478Z,2.43
2018-07-07T07:43:02.697Z,2.60
2018-07-07T07:45:31.809Z,2.13
2018-07-07T07:48:00.303Z,2.73
2018-07-07T07:50:28.793Z,2.57
2018-07-07T07:52:57.571Z,3.00
2018-07-07T07:55:25.814Z,3.10
2018-07-07T07:57:55.054Z,2.87
2018-07-07T08:00:24.059Z,2.90
2018-07-07T08:02:52.647Z,2.70
2018-07-07T08:05:21.356Z,2.73
2018-07-07T08:07:49.804Z,2.53
2018-07-07T08:10:18.447Z,2.63
2018-07-07T08:12:46.971Z,2.87
2018-07-07T08:15:16.012Z,3.00
2018-07-07T08:17:44.300Z,2.57
2018-07-07T08:20:12.846Z,3.07
2018-07-07T08:22:41.644Z,2.60
2018-07-07T08:25:10.423Z,3.13
2018-07-07T08:27:54.400Z,3.03
2018-07-07T08:30:23.064Z,2.50
2018-07-07T08:32:52.368Z,2.03
2018-07-07T08:35:20.892Z,2.47
2018-07-07T08:37:50.687Z,2.50
2018-07-07T08:40:19.733Z,2.60
2018-07-07T08:42:48.610Z,2.43
2018-07-07T08:45:17.028Z,2.27
2018-07-07T08:47:45.744Z,2.50
2018-07-07T08:50:14.021Z,2.20
2018-07-07T08:52:43.467Z,2.23
2018-07-07T08:55:12.048Z,1.90
2018-07-07T08:57:40.525Z,1.90
2018-07-07T09:00:09.347Z,1.83
2018-07-07T09:02:38.906Z,2.17
2018-07-07T09:05:07.420Z,1.87
2018-07-07T09:07:36.376Z,2.10
2018-07-07T09:10:05.072Z,1.60
2018-07-07T09:12:34.128Z,2.10
2018-07-07T09:15:03.095Z,2.20
2018-07-07T09:17:31.444Z,2.10
2018-07-07T09:19:59.945Z,1.90
2018-07-07T09:22:30.767Z,1.53
2018-07-07T09:24:59.501Z,1.77
2018-07-07T09:27:28.035Z,1.90
2018-07-07T09:29:56.312Z,1.67
2018-07-07T09:32:24.610Z,1.53
2018-07-07T09:34:53.509Z,1.80
2018-07-07T09:37:22.370Z,1.67
2018-07-07T09:39:50.872Z,1.70
2018-07-07T09:42:19.829Z,1.80
2018-07-07T09:44:48.660Z,1.63
2018-07-07T09:47:16.999Z,2.20
2018-07-07T09:49:46.129Z,1.67
2018-07-07T09:52:14.776Z,1.57
2018-07-07T09:54:43.543Z,1.90
2018-07-07T09:57:12.521Z,1.80
2018-07-07T09:59:41.199Z,1.53
2018-07-07T10:02:09.935Z,2.03
2018-07-07T10:04:38.038Z,1.60
2018-07-07T10:07:07.142Z,1.73
2018-07-07T10:09:35.430Z,1.60
2018-07-07T10:12:03.695Z,1.53
2018-07-07T10:14:31.890Z,1.53
2018-07-07T10:17:00.387Z,1.70
2018-07-07T10:19:28.817Z,1.73
2018-07-07T10:21:57.298Z,1.63
2018-07-07T10:24:27.209Z,2.17
2018-07-07T10:26:55.469Z,1.90
2018-07-07T10:29:26.246Z,1.70
2018-07-07T10:31:54.832Z,2.07
2018-07-07T10:34:24.609Z,2.13
2018-07-07T10:36:53.016Z,2.30
2018-07-07T10:39:21.569Z,2.00
2018-07-07T10:41:49.852Z,1.70
2018-07-07T10:44:19.420Z,1.73
2018-07-07T10:46:48.127Z,1.80
2018-07-07T10:49:16.820Z,2.00
2018-07-07T10:51:45.134Z,1.60
2018-07-07T10:54:13.596Z,1.50
2018-07-07T10:56:42.626Z,1.60
2018-07-07T10:59:11.654Z,1.50
2018-07-07T11:01:42.367Z,1.87
2018-07-07T11:04:11.806Z,1.90
2018-07-07T11:06:40.318Z,1.60
2018-07-07T11:09:08.615Z,1.60
2018-07-07T11:11:37.289Z,1.40
2018-07-07T11:14:07.035Z,1.70
2018-07-07T11:16:35.239Z,1.77
2018-07-07T11:19:03.961Z,1.50
2018-07-07T11:21:32.539Z,1.80
2018-07-07T11:24:01.273Z,1.70
2018-07-07T11:26:30.151Z,1.60
2018-07-07T11:28:58.194Z,1.30
2018-07-07T11:31:26.638Z,1.40
2018-07-07T11:33:58.464Z,1.80
2018-07-07T11:36:26.787Z,1.53
2018-07-07T11:38:55.405Z,1.80
2018-07-07T11:41:24.574Z,1.43
2018-07-07T11:46:54.927Z,1.47
2018-07-07T11:49:23.094Z,1.60
2018-07-07T11:51:51.990Z,1.60
2018-07-07T11:54:25.249Z,1.50
2018-07-07T11:56:53.994Z,1.70
2018-07-07T11:59:22.359Z,1.50
2018-07-07T12:01:51.314Z,1.60
2018-07-07T12:04:19.480Z,1.50
2018-07-07T12:06:48.144Z,1.50
2018-07-07T12:09:16.748Z,1.50
2018-07-07T12:11:46.028Z,1.37
2018-07-07T12:14:14.209Z,1.53
2018-07-07T12:16:42.179Z,1.50
2018-07-07T12:19:10.424Z,1.37
2018-07-07T12:21:39.183Z,1.40
2018-07-07T12:24:07.587Z,1.50
2018-07-07T12:26:36.382Z,1.40
2018-07-07T12:29:05.619Z,1.40
2018-07-07T12:31:33.961Z,1.20
2018-07-07T12:34:02.424Z,1.50
2018-07-07T12:36:31.478Z,1.20
2018-07-07T12:39:00.360Z,1.30
2018-07-07T12:41:29.190Z,1.20
2018-07-07T12:43:57.955Z,1.37
2018-07-07T12:46:25.700Z,1.53
2018-07-07T12:48:53.862Z,1.27
2018-07-07T12:51:22.654Z,1.50
2018-07-07T12:53:51.042Z,1.50
2018-07-07T12:56:19.791Z,1.30
2018-07-07T12:58:49.311Z,1.60
2018-07-07T13:01:17.860Z,1.50
2018-07-07T13:03:47.490Z,1.63
2018-07-07T13:06:16.087Z,1.57
2018-07-07T13:08:44.805Z,1.30
2018-07-07T13:11:13.739Z,1.40
2018-07-07T13:13:42.693Z,1.73
2018-07-07T13:16:10.321Z,1.53
2018-07-07T13:18:39.898Z,1.53
2018-07-07T13:21:09.486Z,1.50
2018-07-07T13:23:37.873Z,1.60
2018-07-07T13:26:06.684Z,1.57
2018-07-07T13:28:35.491Z,1.57
2018-07-07T13:31:04.562Z,1.50
2018-07-07T13:33:33.019Z,1.50
2018-07-07T13:36:01.562Z,1.30
2018-07-07T13:38:29.825Z,1.40
2018-07-07T13:40:58.431Z,1.50
2018-07-07T13:43:27.389Z,1.77
2018-07-07T13:45:55.842Z,1.63
2018-07-07T13:48:24.418Z,1.50
2018-07-07T13:50:53.268Z,1.53
2018-07-07T13:53:21.582Z,1.50
2018-07-07T13:55:50.183Z,1.43
2018-07-07T13:58:18.622Z,1.97
2018-07-07T14:00:46.915Z,1.50
2018-07-07T14:03:15.365Z,1.50
2018-07-07T14:05:44.083Z,1.80
2018-07-07T14:08:12.937Z,1.70
2018-07-07T14:10:41.672Z,1.47
2018-07-07T14:13:10.071Z,1.60
2018-07-07T14:15:38.319Z,1.77
2018-07-07T14:18:07.396Z,2.00
2018-07-07T14:20:36.427Z,1.60
2018-07-07T14:23:05.146Z,1.67
2018-07-07T14:25:34.283Z,1.80
2018-07-07T14:28:02.716Z,2.00
2018-07-07T14:30:31.145Z,1.70
2018-07-07T14:32:59.709Z,1.97
2018-07-07T14:35:27.619Z,1.77
2018-07-07T14:37:56.139Z,1.60
2018-07-07T14:40:24.924Z,1.87
2018-07-07T14:42:55.445Z,2.00
2018-07-07T14:45:25.025Z,1.70
2018-07-07T14:47:54.628Z,1.83
2018-07-07T14:50:23.369Z,1.77
2018-07-07T14:52:52.801Z,2.10
2018-07-07T14:55:22.095Z,1.90
2018-07-07T14:57:50.115Z,2.00
2018-07-07T15:00:27.031Z,1.70
2018-07-07T15:02:56.468Z,1.70
2018-07-07T15:05:24.737Z,1.97
2018-07-07T15:07:52.795Z,1.67
2018-07-07T15:10:21.136Z,1.73
2018-07-07T15:12:50.184Z,1.60
2018-07-07T15:15:19.157Z,1.90
2018-07-07T15:17:48.131Z,1.80
2018-07-07T15:20:16.830Z,2.00
2018-07-07T15:22:45.836Z,1.80
2018-07-07T15:25:14.409Z,1.80
2018-07-07T15:27:43.034Z,1.67
2018-07-07T15:30:11.612Z,1.67
2018-07-07T15:32:40.576Z,2.07
2018-07-07T15:35:08.882Z,1.73
2018-07-07T15:37:37.318Z,1.77
2018-07-07T15:40:06.294Z,1.80
2018-07-07T15:42:35.233Z,1.93
2018-07-07T15:45:03.780Z,1.70
2018-07-07T15:47:32.299Z,1.83
2018-07-07T15:50:00.662Z,2.33
2018-07-07T15:52:28.936Z,2.07
2018-07-07T15:54:57.639Z,2.10
2018-07-07T15:57:26.136Z,1.83
2018-07-07T15:59:56.350Z,2.00
2018-07-07T16:02:25.018Z,2.20
2018-07-07T16:04:53.405Z,1.90
2018-07-07T16:07:22.451Z,2.10
2018-07-07T16:09:51.062Z,2.33
2018-07-07T16:12:19.840Z,2.10
2018-07-07T16:14:48.576Z,2.03
2018-07-07T16:17:19.014Z,2.00
2018-07-07T16:19:47.645Z,2.10
2018-07-07T16:22:16.405Z,2.20
2018-07-07T16:24:45.052Z,2.30
2018-07-07T16:27:13.902Z,1.97
2018-07-07T16:29:42.825Z,1.90
2018-07-07T16:32:12.412Z,1.90
2018-07-07T16:34:41.066Z,1.90
2018-07-07T16:37:10.037Z,2.00
2018-07-07T16:39:39.526Z,1.83
2018-07-07T16:42:08.384Z,2.00
2018-07-07T16:44:36.862Z,1.90
2018-07-07T16:47:05.634Z,2.10
2018-07-07T16:49:34.884Z,2.30
2018-07-07T16:52:04.301Z,2.20
2018-07-07T16:54:32.967Z,2.27
2018-07-07T16:57:01.919Z,2.40
2018-07-07T16:59:31.961Z,2.80
2018-07-07T17:02:00.622Z,3.53
2018-07-07T17:04:29.612Z,3.40
2018-07-07T17:06:58.131Z,4.07
2018-07-07T17:09:26.637Z,4.30
2018-07-07T17:11:55.155Z,5.00
2018-07-07T17:14:23.806Z,4.53
2018-07-07T17:16:52.868Z,4.27
2018-07-07T17:19:23.038Z,4.60
2018-07-07T17:21:52.462Z,4.60
2018-07-07T17:24:22.198Z,3.53
2018-07-07T17:26:51.163Z,4.63
2018-07-07T17:29:19.565Z,4.00
2018-07-07T17:31:49.145Z,4.10
2018-07-07T17:34:19.619Z,4.13
2018-07-07T17:36:49.180Z,4.10
2018-07-07T17:39:18.522Z,4.83
2018-07-07T17:41:48.671Z,4.20
2018-07-07T17:44:16.957Z,3.90
2018-07-07T17:46:45.432Z,4.27
2018-07-07T17:49:13.794Z,4.33
2018-07-07T17:51:42.905Z,4.03
2018-07-07T17:54:11.317Z,3.60
2018-07-07T17:56:39.584Z,3.60
2018-07-07T17:59:08.082Z,4.00
2018-07-07T18:01:37.331Z,3.93
2018-07-07T18:04:06.325Z,4.40
2018-07-07T18:06:35.348Z,4.30
2018-07-07T18:09:04.805Z,3.90
2018-07-07T18:11:33.248Z,3.50
2018-07-07T18:14:01.642Z,3.00
2018-07-07T18:16:30.383Z,3.27
2018-07-07T18:18:58.252Z,3.30
2018-07-07T18:21:27.273Z,3.13
2018-07-07T18:23:55.609Z,3.27
2018-07-07T18:26:24.372Z,3.00
2018-07-07T18:28:53.202Z,2.70
2018-07-07T18:31:21.484Z,3.00
2018-07-07T18:33:52.261Z,5.23
2018-07-07T18:36:22.609Z,9.33
2018-07-07T18:38:50.407Z,9.13
2018-07-07T18:41:20.116Z,10.87
2018-07-07T18:43:48.278Z,10.30
2018-07-07T18:46:17.483Z,9.60
2018-07-07T18:48:46.202Z,8.90
2018-07-07T18:51:15.046Z,7.70
2018-07-07T18:53:43.645Z,7.27
2018-07-07T18:56:11.946Z,5.70
2018-07-07T18:58:40.518Z,5.60
2018-07-07T19:01:09.415Z,4.93
2018-07-07T19:03:38.127Z,4.33
2018-07-07T19:06:08.353Z,3.97
2018-07-07T19:08:37.285Z,3.53
2018-07-07T19:11:06.130Z,3.70
2018-07-07T19:13:35.643Z,3.53
2018-07-07T19:16:04.181Z,3.67
2018-07-07T19:18:32.674Z,2.70
2018-07-07T19:21:06.577Z,2.60
2018-07-07T19:24:39.767Z,2.87
2018-07-07T19:27:08.790Z,2.73
2018-07-07T19:29:37.712Z,2.77
2018-07-07T19:32:11.341Z,2.73
2018-07-07T19:34:44.943Z,2.70
2018-07-07T19:37:18.396Z,2.50
2018-07-07T19:39:47.286Z,2.93
2018-07-07T19:42:15.724Z,3.00
2018-07-07T19:44:44.380Z,2.50
2018-07-07T19:47:13.375Z,2.53
2018-07-07T19:49:44.151Z,2.57
2018-07-07T19:52:12.654Z,2.63
2018-07-07T19:54:42.031Z,2.90
2018-07-07T19:57:11.072Z,2.70
2018-07-07T19:59:39.890Z,2.67
2018-07-07T20:02:09.134Z,3.07
2018-07-07T20:04:38.194Z,2.80
2018-07-07T20:07:06.341Z,2.40
2018-07-07T20:09:34.769Z,3.10
2018-07-07T20:12:04.762Z,2.60
2018-07-07T20:14:33.086Z,2.60
2018-07-07T20:17:10.567Z,2.67
2018-07-07T20:19:43.952Z,2.80
2018-07-07T20:22:12.261Z,2.77
2018-07-07T20:24:40.899Z,2.67
2018-07-07T20:27:14.439Z,2.73
2018-07-07T20:29:44.152Z,2.53
2018-07-07T20:32:18.334Z,2.27
2018-07-07T20:34:47.782Z,2.80
2018-07-07T20:37:17.576Z,2.60
2018-07-07T20:39:46.845Z,2.40
2018-07-07T20:42:16.382Z,2.63
2018-07-07T20:44:45.702Z,2.67
2018-07-07T20:47:14.424Z,2.40
2018-07-07T20:49:42.820Z,2.60
2018-07-07T20:52:12.023Z,2.80
2018-07-07T20:54:40.614Z,2.77
2018-07-07T20:57:09.583Z,2.80
2018-07-07T20:59:38.184Z,2.40
2018-07-07T21:02:06.915Z,2.77
2018-07-07T21:04:35.704Z,2.43
2018-07-07T21:07:06.105Z,2.97
2018-07-07T21:09:34.803Z,2.63
2018-07-07T21:12:03.392Z,2.40
2018-07-07T21:14:32.973Z,2.90
2018-07-07T21:17:01.348Z,2.20
2018-07-07T21:19:30.294Z,2.10
2018-07-07T21:22:00.365Z,2.40
2018-07-07T21:24:29.936Z,2.60
2018-07-07T21:26:58.786Z,2.63
2018-07-07T21:29:28.310Z,2.40
2018-07-07T21:31:58.370Z,2.13
2018-07-07T21:34:27.288Z,2.40
2018-07-07T21:36:59.476Z,2.00
2018-07-07T21:39:37.003Z,2.40
2018-07-07T21:42:10.746Z,2.70
2018-07-07T21:44:51.308Z,2.27
2018-07-07T21:47:32.700Z,2.50
2018-07-07T21:50:06.852Z,2.57
2018-07-07T21:52:49.019Z,2.30
2018-07-07T21:55:27.025Z,3.00
2018-07-07T21:58:12.086Z,2.20
2018-07-07T22:03:39.673Z,2.20
2018-07-07T22:06:20.771Z,2.73
2018-07-07T22:09:07.683Z,2.33
2018-07-07T22:11:42.982Z,2.40
2018-07-07T22:14:18.730Z,2.03
2018-07-07T22:17:00.170Z,2.20
2018-07-07T22:19:38.296Z,2.20
2018-07-07T22:22:12.507Z,2.30
2018-07-07T22:24:58.483Z,2.43
2018-07-07T22:27:32.120Z,2.20
2018-07-07T22:30:05.559Z,2.50
2018-07-07T22:32:42.612Z,2.30
2018-07-07T22:35:18.473Z,2.43
2018-07-07T22:37:53.073Z,2.47
2018-07-07T22:40:28.169Z,2.80
2018-07-07T22:42:59.717Z,2.30
2018-07-07T22:45:31.340Z,2.37
2018-07-07T22:48:01.570Z,2.40
2018-07-07T22:50:42.930Z,2.50
2018-07-07T22:53:25.025Z,2.27
2018-07-07T22:55:57.198Z,2.00
2018-07-07T22:58:30.270Z,2.50
2018-07-07T23:01:12.265Z,2.53
2018-07-07T23:03:51.045Z,2.43
2018-07-07T23:06:23.001Z,2.27
2018-07-07T23:11:39.276Z,2.30
2018-07-07T23:14:20.401Z,2.20
2018-07-07T23:16:53.513Z,2.23
2018-07-07T23:19:26.461Z,2.03
2018-07-07T23:22:01.044Z,1.80
2018-07-07T23:24:32.236Z,2.00
2018-07-07T23:27:00.401Z,2.43
2018-07-07T23:29:29.044Z,2.47
2018-07-07T23:31:57.995Z,2.60
2018-07-07T23:34:26.877Z,2.73
2018-07-07T23:36:55.623Z,2.30
2018-07-07T23:39:24.193Z,2.33
2018-07-07T23:41:52.452Z,2.40
2018-07-07T23:44:20.612Z,2.17
2018-07-07T23:46:49.338Z,2.30
2018-07-07T23:49:17.730Z,2.63
2018-07-07T23:51:46.121Z,1.53
2018-07-07T23:54:14.844Z,2.20
2018-07-07T23:56:42.821Z,2.07
2018-07-07T23:59:11.435Z,2.00
